PWSweather.com
Personal Weather Stations
Station Observations
UISISLE1
Newport, Isle ofWight, ISLE OF WIGHT PO30 2JX

NewportIsle ofWight, ISLE OF WIGHT PO30 2JX

Lat: 50.72, Lon: -1.27

Elevation: 45

Station Type: Davis Vantage Pro Plus

http://www.isleofwightweather.co.uk

High Low Average
Temperature 56.7°F13.7°F 45.2°F7.3°F 49.4°F9.7°F
Dew Point 48.5°F9.2°F 40.7°F4.8°F 44.4°F6.9°F
Winds 12.2 mph NE19.6 mph NE 4.1 mph 6.6 mph 7.6 mph 12.2 mph
Wind Gusts 19.0 mph30.6 mph 5.0 mph8.0 mph 11.9 mph19.2 mph
Humidity 92% 71% 83%
Pressure 30.43 in1030.50 in 30.12 in1020.00 in -
Precipitation 0.03 in0.80 in - -
Hour Temp Dew Point Humidity Winds Wind Gusts Pressure Precip Precip Rate Daily Precip Total
12:00 AM 47.9°F8.8°C 43.3°F6.3°C 84% 12.0 mph ENE19.3 kmh ENE 18.0 mph29.0 kmh 30.12 in1020.0 mb - 0.00 in0.0 mm 0.00 in0.0 mm
12:15 AM 47.9°F8.8°C 43.3°F6.3°C 84% 10.4 mph E16.7 kmh E 16.0 mph25.7 kmh 30.13 in1020.3 mb - 0.00 in0.0 mm 0.00 in0.0 mm
12:30 AM 47.8°F8.8°C 43.2°F6.2°C 84% 8.4 mph ENE13.5 kmh ENE 19.0 mph30.6 kmh 30.13 in1020.3 mb - 0.00 in0.0 mm 0.00 in0.0 mm
12:45 AM 47.7°F8.7°C 43.4°F6.3°C 85% 7.6 mph NE12.2 kmh NE 12.4 mph20.0 kmh 30.14 in1020.7 mb - 0.00 in0.0 mm 0.00 in0.0 mm
01:00 AM 47.7°F8.7°C 43.4°F6.3°C 85% 7.4 mph ESE11.9 kmh ESE 12.0 mph19.3 kmh 30.14 in1020.7 mb - 0.00 in0.0 mm 0.00 in0.0 mm
01:15 AM 47.7°F8.7°C 43.7°F6.5°C 86% 8.6 mph E13.8 kmh E 17.0 mph27.4 kmh 30.14 in1020.7 mb - 0.00 in0.0 mm 0.00 in0.0 mm
01:30 AM 47.7°F8.7°C 43.7°F6.5°C 86% 8.3 mph E13.4 kmh E 7.0 mph11.3 kmh 30.15 in1021.0 mb - 0.00 in0.0 mm 0.00 in0.0 mm
01:45 AM 47.7°F8.7°C 43.7°F6.5°C 86% 10.7 mph ENE17.2 kmh ENE 18.0 mph29.0 kmh 30.15 in1021.0 mb - 0.00 in0.0 mm 0.00 in0.0 mm
02:00 AM 47.6°F8.7°C 43.9°F6.6°C 87% 8.5 mph NE13.7 kmh NE 15.0 mph24.1 kmh 30.16 in1021.3 mb - 0.00 in0.0 mm 0.00 in0.0 mm
02:15 AM 47.4°F8.6°C 43.7°F6.5°C 87% 10.2 mph NE16.4 kmh NE 14.0 mph22.5 kmh 30.16 in1021.3 mb - 0.00 in0.0 mm 0.00 in0.0 mm
02:30 AM 47.4°F8.6°C 43.7°F6.5°C 87% 6.1 mph NE9.8 kmh NE 12.0 mph19.3 kmh 30.16 in1021.3 mb - 0.00 in0.0 mm 0.00 in0.0 mm
02:45 AM 47.3°F8.5°C 43.9°F6.6°C 88% 7.3 mph ENE11.7 kmh ENE 13.0 mph20.9 kmh 30.16 in1021.3 mb - 0.00 in0.0 mm 0.00 in0.0 mm
03:00 AM 47.3°F8.5°C 43.9°F6.6°C 88% 7.8 mph E12.6 kmh E 11.0 mph17.7 kmh 30.17 in1021.7 mb - 0.00 in0.0 mm 0.00 in0.0 mm
03:15 AM 47.2°F8.4°C 44.1°F6.7°C 89% 6.3 mph NE10.1 kmh NE 12.0 mph19.3 kmh 30.17 in1021.7 mb - 0.00 in0.0 mm 0.00 in0.0 mm
03:30 AM 47.2°F8.4°C 44.1°F6.7°C 89% 6.3 mph ENE10.1 kmh ENE 8.0 mph12.9 kmh 30.17 in1021.7 mb - 0.00 in0.0 mm 0.00 in0.0 mm
03:45 AM 47.0°F8.3°C 44.2°F6.8°C 90% 5.7 mph NE9.2 kmh NE 9.0 mph14.5 kmh 30.17 in1021.7 mb - 0.01 in0.3 mm 0.01 in0.3 mm
04:00 AM 46.8°F8.2°C 44.0°F6.7°C 90% 4.2 mph E6.8 kmh E 7.2 mph11.6 kmh 30.18 in1022.0 mb - 0.01 in0.3 mm 0.02 in0.5 mm
04:15 AM 46.6°F8.1°C 44.1°F6.7°C 91% 5.9 mph NE9.5 kmh NE 10.0 mph16.1 kmh 30.18 in1022.0 mb - 0.00 in0.0 mm 0.02 in0.5 mm
04:30 AM 46.5°F8.1°C 44.0°F6.7°C 91% 6.8 mph NE10.9 kmh NE 9.3 mph15.0 kmh 30.19 in1022.4 mb - 0.00 in0.0 mm 0.02 in0.5 mm
04:45 AM 46.4°F8.0°C 43.9°F6.6°C 91% 5.2 mph ENE8.4 kmh ENE 5.0 mph8.0 kmh 30.19 in1022.4 mb - 0.00 in0.0 mm 0.02 in0.5 mm
05:00 AM 46.4°F8.0°C 44.2°F6.8°C 92% 5.0 mph NE8.0 kmh NE 9.0 mph14.5 kmh 30.21 in1023.0 mb - 0.00 in0.0 mm 0.02 in0.5 mm
05:15 AM 46.4°F8.0°C 44.2°F6.8°C 92% 5.1 mph ENE8.2 kmh ENE 10.0 mph16.1 kmh 30.21 in1023.0 mb - 0.00 in0.0 mm 0.02 in0.5 mm
05:30 AM 46.4°F8.0°C 44.2°F6.8°C 92% 5.6 mph NE9.0 kmh NE 11.0 mph17.7 kmh 30.22 in1023.4 mb - 0.00 in0.0 mm 0.02 in0.5 mm
05:45 AM 46.5°F8.1°C 44.0°F6.7°C 91% 7.0 mph NE11.3 kmh NE 12.0 mph19.3 kmh 30.23 in1023.7 mb - 0.00 in0.0 mm 0.02 in0.5 mm
06:00 AM 46.6°F8.1°C 44.1°F6.7°C 91% 7.4 mph NE11.9 kmh NE 10.0 mph16.1 kmh 30.23 in1023.7 mb - 0.00 in0.0 mm 0.02 in0.5 mm
06:15 AM 46.6°F8.1°C 44.1°F6.7°C 91% 5.1 mph NE8.2 kmh NE 7.0 mph11.3 kmh 30.24 in1024.0 mb - 0.00 in0.0 mm 0.02 in0.5 mm
06:30 AM 46.6°F8.1°C 44.1°F6.7°C 91% 6.2 mph E10.0 kmh E 10.0 mph16.1 kmh 30.25 in1024.4 mb - 0.00 in0.0 mm 0.02 in0.5 mm
06:45 AM 46.7°F8.2°C 44.2°F6.8°C 91% 6.9 mph ENE11.1 kmh ENE 9.0 mph14.5 kmh 30.25 in1024.4 mb - 0.00 in0.0 mm 0.02 in0.5 mm
07:00 AM 46.8°F8.2°C 44.3°F6.8°C 91% 8.3 mph NE13.4 kmh NE 12.0 mph19.3 kmh 30.25 in1024.4 mb - 0.00 in0.0 mm 0.02 in0.5 mm
07:15 AM 47.0°F8.3°C 44.2°F6.8°C 90% 9.0 mph E14.5 kmh E 15.0 mph24.1 kmh 30.26 in1024.7 mb - 0.00 in0.0 mm 0.02 in0.5 mm
07:30 AM 47.0°F8.3°C 44.2°F6.8°C 90% 8.4 mph E13.5 kmh E 11.0 mph17.7 kmh 30.27 in1025.1 mb - 0.00 in0.0 mm 0.02 in0.5 mm
07:45 AM 47.2°F8.4°C 44.4°F6.9°C 90% 8.6 mph ENE13.8 kmh ENE 15.0 mph24.1 kmh 30.27 in1025.1 mb - 0.00 in0.0 mm 0.02 in0.5 mm
08:00 AM 47.2°F8.4°C 44.1°F6.7°C 89% 8.6 mph ENE13.8 kmh ENE 12.4 mph20.0 kmh 30.28 in1025.4 mb - 0.00 in0.0 mm 0.02 in0.5 mm
08:15 AM 47.3°F8.5°C 44.2°F6.8°C 89% 10.0 mph NE16.1 kmh NE 11.0 mph17.7 kmh 30.28 in1025.4 mb - 0.00 in0.0 mm 0.02 in0.5 mm
08:30 AM 47.6°F8.7°C 44.5°F6.9°C 89% 12.2 mph NE19.6 kmh NE 16.0 mph25.7 kmh 30.29 in1025.7 mb - 0.00 in0.0 mm 0.02 in0.5 mm
08:45 AM 47.9°F8.8°C 44.8°F7.1°C 89% 9.0 mph ENE14.5 kmh ENE 11.0 mph17.7 kmh 30.29 in1025.7 mb - 0.00 in0.0 mm 0.02 in0.5 mm
09:00 AM 48.1°F8.9°C 44.7°F7.1°C 88% 11.1 mph NE17.9 kmh NE 14.4 mph23.2 kmh 30.29 in1025.7 mb - 0.00 in0.0 mm 0.02 in0.5 mm
09:15 AM 48.4°F9.1°C 45.0°F7.2°C 88% 5.1 mph NE8.2 kmh NE 9.0 mph14.5 kmh 30.30 in1026.1 mb - 0.00 in0.0 mm 0.02 in0.5 mm
09:30 AM 48.7°F9.3°C 45.0°F7.2°C 87% 6.1 mph E9.8 kmh E 6.0 mph9.7 kmh 30.32 in1026.8 mb - 0.00 in0.0 mm 0.02 in0.5 mm
09:45 AM 48.9°F9.4°C 45.2°F7.3°C 87% 6.0 mph ENE9.7 kmh ENE 11.0 mph17.7 kmh 30.32 in1026.8 mb - 0.00 in0.0 mm 0.02 in0.5 mm
10:00 AM 49.1°F9.5°C 45.4°F7.4°C 87% 7.8 mph NE12.6 kmh NE 10.0 mph16.1 kmh 30.32 in1026.8 mb - 0.00 in0.0 mm 0.02 in0.5 mm
10:15 AM 49.2°F9.6°C 45.5°F7.5°C 87% 11.4 mph ENE18.3 kmh ENE 15.5 mph24.9 kmh 30.32 in1026.8 mb - 0.00 in0.0 mm 0.02 in0.5 mm
10:30 AM 49.5°F9.7°C 45.5°F7.5°C 86% 6.7 mph ENE10.8 kmh ENE 11.0 mph17.7 kmh 30.34 in1027.4 mb - 0.00 in0.0 mm 0.02 in0.5 mm
10:45 AM 49.7°F9.8°C 45.7°F7.6°C 86% 7.9 mph NE12.7 kmh NE 13.0 mph20.9 kmh 30.34 in1027.4 mb - 0.00 in0.0 mm 0.02 in0.5 mm
11:00 AM 50.1°F10.1°C 46.1°F7.8°C 86% 6.4 mph E10.3 kmh E 11.0 mph17.7 kmh 30.36 in1028.1 mb - 0.00 in0.0 mm 0.02 in0.5 mm
11:15 AM 50.2°F10.1°C 46.2°F7.9°C 86% 6.5 mph ENE10.5 kmh ENE 13.0 mph20.9 kmh 30.37 in1028.4 mb - 0.00 in0.0 mm 0.02 in0.5 mm
11:30 AM 50.5°F10.3°C 46.2°F7.9°C 85% 6.7 mph NE10.8 kmh NE 15.0 mph24.1 kmh 30.36 in1028.1 mb - 0.00 in0.0 mm 0.02 in0.5 mm
11:45 AM 50.9°F10.5°C 46.9°F8.3°C 86% 7.1 mph ENE11.4 kmh ENE 13.0 mph20.9 kmh 30.36 in1028.1 mb - 0.00 in0.0 mm 0.02 in0.5 mm
12:00 PM 51.2°F10.7°C 46.8°F8.2°C 85% 9.6 mph E15.4 kmh E 14.0 mph22.5 kmh 30.35 in1027.8 mb - 0.00 in0.0 mm 0.02 in0.5 mm
12:15 PM 52.0°F11.1°C 47.3°F8.5°C 84% 7.3 mph NE11.7 kmh NE 11.0 mph17.7 kmh 30.34 in1027.4 mb - 0.00 in0.0 mm 0.02 in0.5 mm
12:30 PM 52.2°F11.2°C 47.2°F8.4°C 83% 5.7 mph ENE9.2 kmh ENE 13.0 mph20.9 kmh 30.35 in1027.8 mb - 0.00 in0.0 mm 0.02 in0.5 mm
12:45 PM 52.3°F11.3°C 47.0°F8.3°C 82% 7.4 mph E11.9 kmh E 11.0 mph17.7 kmh 30.35 in1027.8 mb - 0.00 in0.0 mm 0.02 in0.5 mm
01:00 PM 52.3°F11.3°C 47.3°F8.5°C 83% 6.8 mph ENE10.9 kmh ENE 11.0 mph17.7 kmh 30.35 in1027.8 mb - 0.00 in0.0 mm 0.02 in0.5 mm
01:15 PM 53.5°F11.9°C 48.1°F8.9°C 82% 8.8 mph NE14.2 kmh NE 15.5 mph24.9 kmh 30.34 in1027.4 mb - 0.00 in0.0 mm 0.02 in0.5 mm
01:30 PM 54.3°F12.4°C 47.9°F8.8°C 79% 10.9 mph ENE17.5 kmh ENE 15.5 mph24.9 kmh 30.34 in1027.4 mb - 0.00 in0.0 mm 0.02 in0.5 mm
01:45 PM 54.8°F12.7°C 48.1°F8.9°C 78% 6.8 mph NE10.9 kmh NE 13.0 mph20.9 kmh 30.34 in1027.4 mb - 0.00 in0.0 mm 0.02 in0.5 mm
02:00 PM 55.3°F12.9°C 48.2°F9.0°C 77% 7.1 mph NE11.4 kmh NE 9.0 mph14.5 kmh 30.34 in1027.4 mb - 0.00 in0.0 mm 0.02 in0.5 mm
02:15 PM 56.0°F13.3°C 48.5°F9.2°C 76% 8.4 mph N13.5 kmh N 11.0 mph17.7 kmh 30.34 in1027.4 mb - 0.01 in0.3 mm 0.02 in0.5 mm
02:30 PM 55.9°F13.3°C 48.1°F8.9°C 75% 6.4 mph NE10.3 kmh NE 13.0 mph20.9 kmh 30.34 in1027.4 mb - 0.00 in0.0 mm 0.02 in0.5 mm
02:45 PM 56.3°F13.5°C 48.5°F9.2°C 75% 10.0 mph NE16.1 kmh NE 13.4 mph21.6 kmh 30.34 in1027.4 mb - 0.00 in0.0 mm 0.02 in0.5 mm
03:00 PM 56.7°F13.7°C 48.5°F9.2°C 74% 7.0 mph NE11.3 kmh NE 18.0 mph29.0 kmh 30.34 in1027.4 mb - 0.00 in0.0 mm 0.02 in0.5 mm
03:15 PM 56.6°F13.7°C 48.4°F9.1°C 74% 9.9 mph NE15.9 kmh NE 17.0 mph27.4 kmh 30.34 in1027.4 mb - 0.00 in0.0 mm 0.02 in0.5 mm
03:30 PM 56.2°F13.4°C 48.0°F8.9°C 74% 11.8 mph NE19.0 kmh NE 15.0 mph24.1 kmh 30.34 in1027.4 mb - 0.00 in0.0 mm 0.02 in0.5 mm
03:45 PM 55.5°F13.1°C 47.4°F8.6°C 74% 9.5 mph NE15.3 kmh NE 16.0 mph25.7 kmh 30.34 in1027.4 mb - 0.00 in0.0 mm 0.02 in0.5 mm
04:00 PM 55.2°F12.9°C 47.4°F8.6°C 75% 8.8 mph E14.2 kmh E 11.0 mph17.7 kmh 30.34 in1027.4 mb - 0.00 in0.0 mm 0.02 in0.5 mm
04:15 PM 54.8°F12.7°C 47.0°F8.3°C 75% 10.8 mph E17.4 kmh E 15.0 mph24.1 kmh 30.34 in1027.4 mb - 0.00 in0.0 mm 0.02 in0.5 mm
04:30 PM 54.4°F12.4°C 47.0°F8.3°C 76% 9.0 mph NE14.5 kmh NE 14.4 mph23.2 kmh 30.35 in1027.8 mb - 0.00 in0.0 mm 0.02 in0.5 mm
04:45 PM 54.2°F12.3°C 46.8°F8.2°C 76% 6.9 mph NE11.1 kmh NE 14.0 mph22.5 kmh 30.36 in1028.1 mb - 0.00 in0.0 mm 0.02 in0.5 mm
05:00 PM 54.1°F12.3°C 46.7°F8.2°C 76% 8.3 mph NE13.4 kmh NE 10.3 mph16.6 kmh 30.36 in1028.1 mb - 0.00 in0.0 mm 0.02 in0.5 mm
05:15 PM 53.7°F12.1°C 45.6°F7.6°C 74% 7.2 mph NE11.6 kmh NE 9.0 mph14.5 kmh 30.36 in1028.1 mb - 0.00 in0.0 mm 0.02 in0.5 mm
05:30 PM 53.6°F12.0°C 45.2°F7.3°C 73% 5.8 mph NE9.3 kmh NE 9.3 mph15.0 kmh 30.37 in1028.4 mb - 0.00 in0.0 mm 0.02 in0.5 mm
05:45 PM 53.4°F11.9°C 45.0°F7.2°C 73% 8.3 mph NE13.4 kmh NE 11.0 mph17.7 kmh 30.37 in1028.4 mb - 0.00 in0.0 mm 0.02 in0.5 mm
06:00 PM 53.0°F11.7°C 44.6°F7.0°C 73% 6.5 mph ENE10.5 kmh ENE 10.0 mph16.1 kmh 30.37 in1028.4 mb - 0.00 in0.0 mm 0.02 in0.5 mm
06:15 PM 52.4°F11.3°C 44.0°F6.7°C 73% 6.8 mph ENE10.9 kmh ENE 12.0 mph19.3 kmh 30.38 in1028.8 mb - 0.00 in0.0 mm 0.02 in0.5 mm
06:30 PM 51.7°F10.9°C 42.6°F5.9°C 71% 9.9 mph E15.9 kmh E 19.0 mph30.6 kmh 30.38 in1028.8 mb - 0.00 in0.0 mm 0.02 in0.5 mm
06:45 PM 51.3°F10.7°C 42.2°F5.7°C 71% 4.1 mph NE6.6 kmh NE 11.0 mph17.7 kmh 30.38 in1028.8 mb - 0.00 in0.0 mm 0.02 in0.5 mm
07:00 PM 50.6°F10.3°C 42.3°F5.7°C 73% 7.4 mph SE11.9 kmh SE 11.3 mph18.2 kmh 30.39 in1029.1 mb - 0.00 in0.0 mm 0.02 in0.5 mm
07:15 PM 49.9°F9.9°C 42.3°F5.7°C 75% 8.6 mph ENE13.8 kmh ENE 12.0 mph19.3 kmh 30.40 in1029.5 mb - 0.00 in0.0 mm 0.02 in0.5 mm
07:30 PM 49.4°F9.7°C 41.8°F5.4°C 75% 6.8 mph NE10.9 kmh NE 11.0 mph17.7 kmh 30.40 in1029.5 mb - 0.00 in0.0 mm 0.02 in0.5 mm
07:45 PM 48.9°F9.4°C 41.3°F5.2°C 75% 5.1 mph E8.2 kmh E 13.0 mph20.9 kmh 30.41 in1029.8 mb - 0.00 in0.0 mm 0.02 in0.5 mm
08:00 PM 48.6°F9.2°C 41.4°F5.2°C 76% 5.4 mph NE8.7 kmh NE 8.0 mph12.9 kmh 30.41 in1029.8 mb - 0.00 in0.0 mm 0.02 in0.5 mm
08:15 PM 48.1°F8.9°C 41.2°F5.1°C 77% 7.4 mph NE11.9 kmh NE 11.3 mph18.2 kmh 30.42 in1030.1 mb - 0.00 in0.0 mm 0.02 in0.5 mm
08:30 PM 47.7°F8.7°C 41.2°F5.1°C 78% 5.0 mph NE8.0 kmh NE 7.0 mph11.3 kmh 30.43 in1030.5 mb - 0.00 in0.0 mm 0.02 in0.5 mm
08:45 PM 47.3°F8.5°C 41.5°F5.3°C 80% 6.3 mph NE10.1 kmh NE 9.0 mph14.5 kmh 30.43 in1030.5 mb - 0.00 in0.0 mm 0.02 in0.5 mm
09:00 PM 46.9°F8.3°C 41.4°F5.2°C 81% 8.8 mph NE14.2 kmh NE 11.0 mph17.7 kmh 30.43 in1030.5 mb - 0.00 in0.0 mm 0.02 in0.5 mm
09:15 PM 46.6°F8.1°C 41.4°F5.2°C 82% 7.0 mph ENE11.3 kmh ENE 11.0 mph17.7 kmh 30.43 in1030.5 mb - 0.00 in0.0 mm 0.02 in0.5 mm
09:30 PM 46.3°F7.9°C 41.4°F5.2°C 83% 5.5 mph ENE8.9 kmh ENE 7.2 mph11.6 kmh 30.43 in1030.5 mb - 0.00 in0.0 mm 0.02 in0.5 mm
09:45 PM 45.9°F7.7°C 41.0°F5.0°C 83% 6.5 mph ENE10.5 kmh ENE 9.0 mph14.5 kmh 30.43 in1030.5 mb - 0.00 in0.0 mm 0.02 in0.5 mm
10:00 PM 45.7°F7.6°C 41.1°F5.1°C 84% 6.6 mph NE10.6 kmh NE 13.0 mph20.9 kmh 30.43 in1030.5 mb - 0.00 in0.0 mm 0.02 in0.5 mm
10:15 PM 45.6°F7.6°C 41.0°F5.0°C 84% 7.0 mph ENE11.3 kmh ENE 15.0 mph24.1 kmh 30.43 in1030.5 mb - 0.00 in0.0 mm 0.02 in0.5 mm
10:30 PM 45.5°F7.5°C 40.9°F4.9°C 84% 10.5 mph ENE16.9 kmh ENE 13.0 mph20.9 kmh 30.42 in1030.1 mb - 0.00 in0.0 mm 0.02 in0.5 mm
10:45 PM 45.4°F7.4°C 40.8°F4.9°C 84% 9.3 mph NE15.0 kmh NE 14.0 mph22.5 kmh 30.43 in1030.5 mb - 0.00 in0.0 mm 0.02 in0.5 mm
11:00 PM 45.3°F7.4°C 40.7°F4.8°C 84% 7.0 mph ENE11.3 kmh ENE 8.0 mph12.9 kmh 30.43 in1030.5 mb - 0.00 in0.0 mm 0.02 in0.5 mm
11:15 PM 45.3°F7.4°C 40.7°F4.8°C 84% 4.9 mph ENE7.9 kmh ENE 5.0 mph8.0 kmh 30.43 in1030.5 mb - 0.00 in0.0 mm 0.02 in0.5 mm
11:30 PM 45.3°F7.4°C 40.7°F4.8°C 84% 8.4 mph NE13.5 kmh NE 13.4 mph21.6 kmh 30.43 in1030.5 mb - 0.00 in0.0 mm 0.02 in0.5 mm
11:45 PM 45.2°F7.3°C 40.7°F4.8°C 84% 6.4 mph ENE10.3 kmh ENE 8.0 mph12.9 kmh 30.43 in1030.5 mb - 0.00 in0.0 mm 0.02 in0.5 mm